Time;durP1;ratioP1;P1;durP2;ratioP2;P2;SDS_P1;SDS_P2;PMS_P1;PMS_P2;Temp;Humidity;BMP_temperature;BMP_pressure;BME280_temperature;BME280_humidity;BME280_pressure;Samples;Min_cycle;Max_cycle;Signal;HPM_P1;HPM_P2
2022/07/12 00:02:00;;;;;;;5.00;4.53;;;15.70;99.90;;;;;;4952467;28;20213;-77
2022/07/12 00:04:26;;;;;;;4.97;4.00;;;15.70;99.90;;;;;;4954297;28;20279;-76
2022/07/12 00:06:51;;;;;;;5.40;4.90;;;15.60;99.90;;;;;;4954253;28;20536;-79
2022/07/12 00:09:17;;;;;;;4.77;4.37;;;15.50;99.90;;;;;;4953692;28;20259;-77
2022/07/12 00:11:43;;;;;;;4.83;4.43;;;15.50;99.90;;;;;;4953005;28;20258;-77
2022/07/12 00:14:09;;;;;;;4.13;3.73;;;15.50;99.90;;;;;;4953304;28;20400;-76
2022/07/12 00:16:35;;;;;;;7.23;4.80;;;15.40;99.90;;;;;;4954005;28;20184;-76
2022/07/12 00:19:01;;;;;;;4.87;4.47;;;15.40;99.90;;;;;;4953176;28;20446;-74
2022/07/12 00:21:27;;;;;;;4.90;4.47;;;15.30;99.90;;;;;;4953924;28;20448;-75
2022/07/12 00:23:53;;;;;;;4.47;4.17;;;15.30;99.90;;;;;;4954175;28;20180;-76
2022/07/12 00:26:18;;;;;;;4.93;4.40;;;15.30;99.90;;;;;;4954380;28;20189;-76
2022/07/12 00:28:44;;;;;;;5.30;4.07;;;15.20;99.90;;;;;;4953156;28;20251;-76
2022/07/12 00:31:10;;;;;;;5.13;4.73;;;15.20;99.90;;;;;;4952055;28;20221;-76
2022/07/12 00:33:35;;;;;;;4.40;4.00;;;15.10;99.90;;;;;;4953362;28;20932;-76
2022/07/12 00:36:01;;;;;;;4.40;4.00;;;15.10;99.90;;;;;;4953346;28;20181;-74
2022/07/12 00:38:27;;;;;;;5.10;4.30;;;15.00;99.90;;;;;;4953184;28;20207;-76
2022/07/12 00:40:52;;;;;;;5.43;4.80;;;15.00;99.90;;;;;;4952257;28;20177;-76
2022/07/12 00:43:18;;;;;;;5.50;4.70;;;15.00;99.90;;;;;;4952780;28;20177;-77
2022/07/12 00:45:43;;;;;;;4.70;4.30;;;15.00;99.90;;;;;;4953056;28;20193;-76
2022/07/12 00:48:10;;;;;;;4.90;4.40;;;15.10;99.90;;;;;;4953169;28;20193;-76
2022/07/12 00:50:35;;;;;;;4.33;3.93;;;15.10;99.90;;;;;;4951783;28;20231;-74
2022/07/12 00:53:02;;;;;;;4.47;4.10;;;15.10;99.90;;;;;;4952299;28;20500;-74
2022/07/12 00:55:27;;;;;;;4.70;4.30;;;15.10;99.90;;;;;;4953023;28;20181;-77
2022/07/12 00:57:53;;;;;;;4.13;3.83;;;15.20;99.90;;;;;;4953083;28;20412;-77
2022/07/12 02:31:48;;;;;;;5.60;4.63;;;14.20;99.90;;;;;;5546188;23;20505;-74
2022/07/12 02:34:14;;;;;;;4.23;3.93;;;14.10;99.90;;;;;;4991487;28;20455;-77
2022/07/12 02:36:39;;;;;;;4.67;4.27;;;14.10;99.90;;;;;;4993950;28;20195;-77
2022/07/12 02:39:05;;;;;;;4.40;4.00;;;14.10;99.90;;;;;;4994147;28;20723;-77
2022/07/12 02:41:31;;;;;;;4.00;3.70;;;14.00;99.90;;;;;;4988666;28;20204;-75
2022/07/12 02:43:57;;;;;;;4.43;4.13;;;13.90;99.90;;;;;;4974953;28;20561;-78
2022/07/12 02:46:23;;;;;;;3.80;3.50;;;13.90;99.90;;;;;;4975007;28;20761;-78
2022/07/12 02:48:48;;;;;;;4.40;4.10;;;13.90;99.90;;;;;;4975935;28;20421;-78
2022/07/12 02:51:14;;;;;;;4.20;3.80;;;13.80;99.90;;;;;;4983438;28;20219;-73
2022/07/12 02:53:39;;;;;;;4.70;4.20;;;13.80;99.90;;;;;;4974942;28;20192;-79
2022/07/12 02:56:05;;;;;;;4.40;4.00;;;13.80;99.90;;;;;;4975107;28;20270;-76
2022/07/12 02:58:31;;;;;;;3.90;3.60;;;13.80;99.90;;;;;;4975531;28;20675;-76
2022/07/12 03:00:56;;;;;;;5.00;4.60;;;13.70;99.90;;;;;;4981272;28;20211;-77
2022/07/12 03:03:22;;;;;;;3.93;3.63;;;13.70;99.90;;;;;;4973901;28;20200;-76
2022/07/12 03:05:47;;;;;;;4.17;3.87;;;13.70;99.90;;;;;;4975097;28;20181;-76
2022/07/12 03:08:13;;;;;;;4.10;3.90;;;13.70;99.90;;;;;;4974471;28;20194;-77
2022/07/12 03:10:39;;;;;;;4.20;3.90;;;13.60;99.90;;;;;;4979259;28;20191;-77
2022/07/12 03:13:05;;;;;;;4.53;4.13;;;13.60;99.90;;;;;;4977817;28;20242;-77
2022/07/12 03:15:32;;;;;;;4.43;4.03;;;13.60;99.90;;;;;;4972733;28;20430;-77
2022/07/12 03:17:59;;;;;;;4.27;3.97;;;13.60;99.90;;;;;;4974663;28;20176;-77
2022/07/12 03:20:24;;;;;;;8.10;4.00;;;13.60;99.90;;;;;;4976299;28;20438;-75
2022/07/12 03:22:51;;;;;;;3.67;3.37;;;13.60;99.90;;;;;;4991601;28;20454;-76
2022/07/12 03:25:18;;;;;;;3.87;3.57;;;13.50;99.90;;;;;;4992628;28;20192;-77
2022/07/12 03:27:43;;;;;;;4.43;4.03;;;13.50;99.90;;;;;;4993764;28;20422;-77
2022/07/12 03:30:10;;;;;;;5.70;5.03;;;13.50;99.90;;;;;;4992721;28;20472;-77
2022/07/12 03:32:35;;;;;;;3.80;3.60;;;13.50;99.90;;;;;;4974620;28;20432;-77
2022/07/12 03:35:01;;;;;;;4.57;4.27;;;13.50;99.90;;;;;;4984902;28;21012;-75
2022/07/12 03:37:28;;;;;;;4.03;3.67;;;13.50;99.90;;;;;;4992855;28;20930;-77
2022/07/12 03:39:53;;;;;;;3.80;3.50;;;13.50;99.90;;;;;;4992657;28;20218;-77
2022/07/12 03:42:19;;;;;;;4.67;4.27;;;13.50;99.90;;;;;;4983429;28;20454;-77
2022/07/12 03:44:45;;;;;;;3.77;3.47;;;13.50;99.90;;;;;;4991709;28;20196;-77
2022/07/12 03:47:11;;;;;;;4.43;4.13;;;13.50;99.90;;;;;;4992821;28;20450;-76
2022/07/12 03:49:37;;;;;;;4.17;3.87;;;13.50;99.90;;;;;;4993001;28;20171;-78
2022/07/12 03:52:03;;;;;;;4.60;3.90;;;13.40;99.90;;;;;;4988964;28;21211;-76
2022/07/12 03:54:29;;;;;;;4.37;4.07;;;13.50;99.90;;;;;;4991444;28;20191;-77
2022/07/12 03:59:38;;;;;;;3.17;2.97;;;13.50;99.90;;;;;;4993265;28;20210;-77
2022/07/12 04:02:04;;;;;;;3.90;3.63;;;13.50;99.90;;;;;;4990284;28;20970;-77
2022/07/12 04:04:29;;;;;;;3.50;3.20;;;13.50;99.90;;;;;;4993055;28;20187;-79
2022/07/12 04:06:55;;;;;;;4.37;3.60;;;13.50;99.90;;;;;;4993087;28;20187;-78
2022/07/12 04:09:20;;;;;;;6.07;5.43;;;13.50;99.90;;;;;;4991658;28;20191;-75
2022/07/12 04:11:46;;;;;;;6.17;4.83;;;13.60;99.90;;;;;;4992021;28;20215;-78
2022/07/12 04:14:12;;;;;;;4.70;4.30;;;13.60;99.90;;;;;;4992570;28;20191;-78
2022/07/12 04:16:37;;;;;;;4.50;4.10;;;13.70;99.90;;;;;;4993043;28;20181;-77
2022/07/12 04:19:04;;;;;;;4.60;4.30;;;13.60;99.90;;;;;;4993010;28;20171;-77
2022/07/12 04:21:31;;;;;;;3.37;3.17;;;13.70;99.90;;;;;;4991883;28;20300;-78
2022/07/12 04:23:56;;;;;;;6.37;4.20;;;13.80;99.90;;;;;;4974955;28;20490;-78
2022/07/12 04:26:22;;;;;;;4.50;4.20;;;13.80;99.90;;;;;;4973309;28;20780;-77
2022/07/12 04:28:47;;;;;;;3.60;3.30;;;13.80;99.90;;;;;;4973193;28;20184;-77
2022/07/12 04:31:13;;;;;;;4.50;4.20;;;13.90;99.90;;;;;;4983264;28;20354;-77
2022/07/12 04:33:38;;;;;;;3.93;3.63;;;13.90;99.90;;;;;;4978749;28;20187;-78
2022/07/12 04:36:04;;;;;;;4.07;3.77;;;13.90;99.90;;;;;;4974325;28;20259;-77
2022/07/12 04:38:29;;;;;;;3.60;3.40;;;14.00;99.90;;;;;;4973126;28;20262;-77
2022/07/12 04:40:55;;;;;;;4.70;3.70;;;14.00;99.90;;;;;;4980808;28;20215;-77
2022/07/12 04:43:23;;;;;;;3.80;3.60;;;14.10;99.90;;;;;;4980019;28;20191;-76
2022/07/12 04:45:48;;;;;;;4.60;4.10;;;14.10;99.90;;;;;;4972325;28;20176;-77
2022/07/12 04:48:14;;;;;;;3.77;3.50;;;14.20;99.90;;;;;;4972651;28;20446;-77
2022/07/12 04:50:39;;;;;;;4.77;3.87;;;14.20;99.90;;;;;;4977972;28;20316;-77
2022/07/12 04:53:05;;;;;;;4.47;4.17;;;14.30;99.90;;;;;;4982738;28;20217;-77
2022/07/12 04:55:30;;;;;;;3.97;3.40;;;14.40;99.90;;;;;;4972163;28;20231;-77
2022/07/12 04:57:56;;;;;;;4.27;3.87;;;14.40;99.90;;;;;;4972907;28;20187;-74
2022/07/12 05:00:22;;;;;;;3.73;3.43;;;14.50;99.90;;;;;;4973128;28;20625;-73
2022/07/12 05:02:48;;;;;;;6.00;3.83;;;14.60;99.90;;;;;;4972653;28;20204;-74
2022/07/12 05:05:14;;;;;;;3.80;3.50;;;14.70;99.90;;;;;;4972714;28;20470;-75
2022/07/12 05:07:41;;;;;;;7.40;3.60;;;14.80;99.90;;;;;;4972693;28;20179;-74
2022/07/12 05:10:07;;;;;;;3.23;3.03;;;15.00;99.90;;;;;;4978591;28;20813;-75
2022/07/12 05:12:34;;;;;;;4.07;3.30;;;15.40;99.90;;;;;;4972798;28;20843;-76
2022/07/12 05:14:59;;;;;;;3.37;3.17;;;15.90;99.90;;;;;;4972319;28;20458;-74
2022/07/12 05:17:25;;;;;;;4.00;3.70;;;16.50;99.90;;;;;;4972085;28;20419;-75
2022/07/12 05:19:50;;;;;;;3.10;2.90;;;17.00;99.90;;;;;;4975281;28;20175;-76
2022/07/12 05:22:16;;;;;;;3.83;3.50;;;17.60;99.90;;;;;;4988610;28;20245;-77
2022/07/12 05:24:42;;;;;;;5.03;2.80;;;18.20;99.90;;;;;;4978592;28;20180;-76
2022/07/12 05:27:07;;;;;;;4.50;3.67;;;18.70;99.90;;;;;;4985817;28;20189;-77
2022/07/12 05:29:33;;;;;;;3.70;3.33;;;19.20;99.90;;;;;;4991204;28;20250;-77
2022/07/12 05:32:01;;;;;;;4.50;4.20;;;19.50;99.90;;;;;;4990166;28;20218;-77
2022/07/12 05:34:26;;;;;;;3.50;3.20;;;20.10;99.90;;;;;;4989822;28;20191;-77
2022/07/12 05:36:52;;;;;;;6.10;3.10;;;20.40;99.90;;;;;;4991115;28;20402;-77
2022/07/12 05:39:17;;;;;;;3.10;2.80;;;20.80;99.90;;;;;;4989913;28;20644;-76
2022/07/12 05:41:43;;;;;;;3.50;3.27;;;21.10;99.90;;;;;;4990398;28;20202;-77
2022/07/12 05:44:08;;;;;;;3.40;3.10;;;21.40;99.90;;;;;;4972010;28;20188;-76
2022/07/12 05:46:34;;;;;;;3.20;3.00;;;21.70;99.90;;;;;;4971797;28;20648;-77
2022/07/12 05:49:00;;;;;;;3.13;2.67;;;21.80;99.90;;;;;;4971042;28;20283;-76
2022/07/12 05:54:10;;;;;;;3.00;2.50;;;22.10;99.90;;;;;;4971162;28;20183;-77
2022/07/12 05:56:36;;;;;;;2.60;2.40;;;22.20;99.90;;;;;;4971442;28;20510;-77
2022/07/12 05:59:02;;;;;;;3.33;2.93;;;22.30;99.90;;;;;;4971060;28;20979;-78
2022/07/12 06:01:27;;;;;;;2.63;2.43;;;22.60;99.90;;;;;;4970803;28;20665;-78
2022/07/12 06:03:53;;;;;;;2.60;2.40;;;22.60;99.90;;;;;;4971236;28;20208;-75
2022/07/12 06:06:18;;;;;;;3.37;2.47;;;22.60;99.90;;;;;;4971457;28;20210;-78
2022/07/12 06:08:44;;;;;;;4.33;2.20;;;22.70;99.90;;;;;;4981147;28;20241;-78
2022/07/12 06:11:09;;;;;;;2.83;2.63;;;22.90;99.90;;;;;;4990046;28;20222;-77
2022/07/12 06:13:35;;;;;;;3.63;3.03;;;23.30;99.90;;;;;;4986485;28;20603;-78
2022/07/12 06:16:00;;;;;;;3.20;2.60;;;23.40;99.90;;;;;;4987365;28;20185;-75
2022/07/12 06:18:26;;;;;;;5.20;3.73;;;23.60;99.90;;;;;;4989756;28;20176;-78
2022/07/12 06:20:52;;;;;;;5.47;3.00;;;23.50;99.90;;;;;;4970745;28;20176;-78
2022/07/12 06:23:18;;;;;;;4.13;3.17;;;23.40;99.90;;;;;;4971310;28;20664;-78
2022/07/12 06:25:44;;;;;;;2.30;2.20;;;23.50;99.90;;;;;;4970893;28;20184;-78
2022/07/12 06:28:09;;;;;;;3.47;2.83;;;23.60;99.90;;;;;;4971500;28;20502;-78
2022/07/12 06:30:35;;;;;;;6.23;2.07;;;23.70;99.90;;;;;;4970794;28;20533;-75
2022/07/12 06:33:00;;;;;;;6.67;1.67;;;23.70;99.90;;;;;;4970978;28;20267;-75
2022/07/12 06:35:27;;;;;;;1.97;1.20;;;23.80;99.90;;;;;;4971059;28;20227;-78
2022/07/12 06:37:53;;;;;;;1.30;1.20;;;24.00;99.90;;;;;;4971222;28;20168;-77
2022/07/12 06:40:18;;;;;;;1.90;1.70;;;24.00;99.90;;;;;;4972120;28;20498;-77
2022/07/12 06:42:44;;;;;;;2.20;1.43;;;24.10;99.90;;;;;;4971053;28;20211;-77
2022/07/12 06:45:10;;;;;;;3.50;2.20;;;24.30;99.90;;;;;;4970864;28;20699;-77
2022/07/12 06:47:36;;;;;;;1.90;1.80;;;24.30;99.90;;;;;;4971037;28;20168;-77
2022/07/12 06:50:03;;;;;;;2.00;1.90;;;24.40;99.90;;;;;;4971760;28;20908;-75
2022/07/12 06:52:29;;;;;;;3.13;2.40;;;24.30;99.90;;;;;;4973870;28;20477;-78
2022/07/12 06:54:55;;;;;;;2.60;1.57;;;24.40;99.90;;;;;;4974714;28;20455;-78
2022/07/12 06:57:20;;;;;;;2.03;1.33;;;24.70;99.90;;;;;;4974597;28;20489;-76
2022/07/12 06:59:46;;;;;;;2.00;1.83;;;24.80;99.90;;;;;;4974570;28;20550;-77
2022/07/12 07:02:11;;;;;;;3.17;1.83;;;25.10;99.90;;;;;;4973363;28;20776;-76
2022/07/12 07:04:37;;;;;;;1.27;1.20;;;24.80;99.90;;;;;;4974210;28;20259;-77
2022/07/12 07:07:02;;;;;;;1.23;1.10;;;25.10;99.90;;;;;;4974558;28;20676;-77
2022/07/12 07:09:28;;;;;;;1.20;1.10;;;25.40;99.90;;;;;;4974085;28;20188;-78
2022/07/12 07:11:53;;;;;;;3.70;1.10;;;25.80;99.90;;;;;;4973841;28;20690;-77
2022/07/12 07:14:19;;;;;;;2.10;1.37;;;26.00;99.90;;;;;;4973316;28;20188;-78
2022/07/12 07:16:45;;;;;;;1.93;1.10;;;25.70;99.90;;;;;;4974313;28;20259;-77
2022/07/12 07:19:10;;;;;;;1.00;0.90;;;25.70;99.90;;;;;;4973935;28;20176;-78
2022/07/12 07:21:36;;;;;;;2.87;0.80;;;26.00;99.90;;;;;;4973692;28;20191;-78
2022/07/12 07:24:03;;;;;;;1.07;0.70;;;26.00;99.90;;;;;;4973676;28;20705;-77
2022/07/12 07:26:29;;;;;;;4.40;0.70;;;26.20;99.90;;;;;;4973759;28;20326;-78
2022/07/12 07:31:39;;;;;;;1.47;0.70;;;26.60;99.90;;;;;;4981977;28;20226;-77
2022/07/12 07:34:05;;;;;;;0.70;0.70;;;26.60;99.90;;;;;;4973739;28;20412;-77
2022/07/12 07:36:31;;;;;;;1.57;0.50;;;26.80;99.90;;;;;;4973995;28;20523;-78
2022/07/12 07:38:58;;;;;;;0.93;0.90;;;26.80;99.90;;;;;;4973327;28;20183;-78
2022/07/12 07:41:24;;;;;;;1.57;0.70;;;26.80;99.90;;;;;;4983585;28;20203;-77
2022/07/12 07:43:49;;;;;;;0.70;0.70;;;26.90;99.90;;;;;;4973756;28;20462;-78
2022/07/12 07:46:15;;;;;;;0.50;0.50;;;26.90;99.90;;;;;;4973435;28;20665;-77
2022/07/12 07:48:40;;;;;;;0.50;0.47;;;27.10;99.90;;;;;;4973607;28;20250;-75
2022/07/12 07:51:06;;;;;;;0.60;0.60;;;27.40;99.90;;;;;;4983769;28;20247;-78
2022/07/12 07:53:31;;;;;;;0.50;0.50;;;27.40;99.90;;;;;;4972589;28;20713;-78
2022/07/12 07:55:57;;;;;;;0.50;0.40;;;27.60;99.90;;;;;;4973796;28;20530;-78
2022/07/12 07:58:23;;;;;;;1.70;0.50;;;27.60;99.90;;;;;;4971987;28;20207;-77
2022/07/12 08:00:52;;;;;;;0.60;0.50;;;27.10;99.90;;;;;;4980400;28;20184;-78
2022/07/12 08:03:18;;;;;;;0.60;0.60;;;27.10;99.90;;;;;;4971672;28;20237;-77
2022/07/12 08:05:44;;;;;;;0.80;0.60;;;27.10;99.90;;;;;;4970782;28;20415;-78
2022/07/12 08:08:09;;;;;;;0.80;0.70;;;27.00;99.90;;;;;;4971572;28;20782;-78
2022/07/12 08:10:35;;;;;;;0.73;0.50;;;27.10;99.90;;;;;;4978005;28;20541;-76
2022/07/12 08:13:01;;;;;;;0.50;0.50;;;26.90;99.90;;;;;;4974152;28;20598;-75
2022/07/12 08:15:26;;;;;;;0.40;0.40;;;26.90;99.90;;;;;;4971614;28;20183;-78
2022/07/12 08:17:52;;;;;;;1.00;0.60;;;27.10;99.90;;;;;;4974368;28;20199;-78
2022/07/12 08:20:18;;;;;;;0.70;0.50;;;27.20;99.90;;;;;;4977864;28;20184;-77
2022/07/12 08:22:45;;;;;;;0.80;0.40;;;27.30;99.90;;;;;;4976750;28;20211;-77
2022/07/12 08:25:10;;;;;;;2.10;0.67;;;27.60;99.90;;;;;;4974133;28;20184;-77
2022/07/12 08:27:36;;;;;;;0.57;0.57;;;27.70;99.90;;;;;;4972300;28;20931;-77
2022/07/12 08:30:01;;;;;;;0.70;0.60;;;27.80;99.90;;;;;;4975358;28;20550;-77
2022/07/12 08:32:27;;;;;;;1.60;0.70;;;27.80;99.90;;;;;;4979979;28;20219;-76
2022/07/12 08:34:52;;;;;;;0.80;0.63;;;27.80;99.90;;;;;;4972608;28;20586;-77
2022/07/12 08:37:18;;;;;;;2.00;0.70;;;28.20;99.90;;;;;;4972103;28;20184;-78
2022/07/12 08:39:43;;;;;;;1.90;0.60;;;28.40;99.90;;;;;;4977096;28;20554;-77
2022/07/12 08:42:15;;;;;;;1.80;0.67;;;28.90;99.90;;;;;;4982662;28;20653;-77
2022/07/12 08:44:40;;;;;;;1.10;0.60;;;29.10;99.90;;;;;;4972345;28;20541;-77
2022/07/12 08:47:10;;;;;;;2.90;0.77;;;29.30;99.90;;;;;;4971942;28;20470;-77
2022/07/12 08:49:36;;;;;;;2.73;0.60;;;29.50;99.90;;;;;;4975029;28;20274;-77
2022/07/12 08:52:27;;;;;;;0.60;0.60;;;29.60;99.90;;;;;;4983403;28;20533;-76
2022/07/12 08:54:52;;;;;;;0.77;0.73;;;29.50;99.90;;;;;;4971614;28;20944;-76
2022/07/12 08:57:39;;;;;;;0.70;0.70;;;29.60;99.90;;;;;;4972104;28;20415;-77
2022/07/12 09:00:05;;;;;;;0.60;0.60;;;29.10;99.90;;;;;;4978259;28;20175;-78
2022/07/12 09:02:46;;;;;;;0.77;0.60;;;28.90;99.90;;;;;;4979849;28;20482;-78
2022/07/12 09:05:13;;;;;;;3.90;0.60;;;29.00;99.90;;;;;;4972100;28;20450;-78
2022/07/12 09:07:39;;;;;;;1.70;0.73;;;29.60;99.90;;;;;;4972300;28;20411;-77
2022/07/12 09:10:07;;;;;;;0.53;0.53;;;29.90;99.90;;;;;;4977471;28;20994;-78
2022/07/12 09:12:34;;;;;;;1.30;0.60;;;29.90;99.90;;;;;;4979065;28;20260;-78
2022/07/12 09:15:13;;;;;;;0.53;0.53;;;30.40;99.90;;;;;;4971274;28;20458;-78
2022/07/12 09:17:40;;;;;;;1.00;0.50;;;30.80;99.90;;;;;;4972449;28;20502;-78
2022/07/12 09:20:09;;;;;;;0.60;0.57;;;31.10;99.90;;;;;;4978065;28;20442;-78
2022/07/12 09:22:35;;;;;;;1.00;0.60;;;31.40;99.90;;;;;;4979035;28;20841;-78
2022/07/12 09:25:20;;;;;;;0.60;0.50;;;31.80;99.90;;;;;;4972068;28;20416;-76
2022/07/12 09:27:56;;;;;;;0.60;0.60;;;32.10;99.10;;;;;;4972013;28;20180;-76
2022/07/12 09:30:23;;;;;;;0.60;0.60;;;32.20;99.30;;;;;;4979693;28;20496;-75
2022/07/12 09:36:07;;;;;;;0.50;0.50;;;32.20;97.50;;;;;;4971778;28;20418;-73
2022/07/12 09:38:37;;;;;;;0.97;0.60;;;31.50;98.50;;;;;;4971800;28;20476;-76
2022/07/12 09:41:06;;;;;;;1.83;0.57;;;31.10;98.30;;;;;;4983987;28;20442;-77
2022/07/12 09:43:32;;;;;;;0.80;0.50;;;30.20;99.40;;;;;;4972221;28;20848;-76
2022/07/12 09:45:59;;;;;;;0.80;0.60;;;29.30;99.90;;;;;;4971129;28;20777;-78
2022/07/12 09:48:27;;;;;;;1.77;0.70;;;28.50;99.90;;;;;;4971580;28;20419;-78
2022/07/12 09:50:55;;;;;;;1.60;0.60;;;28.00;99.90;;;;;;4982302;28;20427;-77
2022/07/12 09:53:34;;;;;;;0.70;0.60;;;27.50;99.90;;;;;;4973962;28;20478;-75
2022/07/12 09:56:05;;;;;;;0.93;0.63;;;27.40;99.90;;;;;;4970951;28;20416;-77
2022/07/12 09:58:50;;;;;;;0.50;0.50;;;27.00;99.90;;;;;;4972057;28;20419;-77
2022/07/12 10:01:16;;;;;;;2.00;0.50;;;26.60;99.90;;;;;;4985081;28;20828;-77
2022/07/12 10:03:43;;;;;;;0.97;0.60;;;26.40;99.90;;;;;;4972034;28;20440;-76
2022/07/12 10:06:09;;;;;;;0.60;0.60;;;26.90;99.90;;;;;;4971223;28;20187;-77
2022/07/12 10:08:35;;;;;;;0.63;0.60;;;28.10;99.90;;;;;;4972885;28;20493;-77
2022/07/12 10:11:01;;;;;;;0.50;0.50;;;28.90;99.90;;;;;;4982492;28;20454;-74
2022/07/12 10:13:27;;;;;;;0.50;0.43;;;29.20;99.90;;;;;;4973915;28;20664;-77
2022/07/12 10:15:59;;;;;;;1.27;0.70;;;29.60;99.90;;;;;;4971348;28;20420;-78
2022/07/12 10:18:25;;;;;;;0.60;0.50;;;29.10;99.90;;;;;;4970646;28;20486;-77
2022/07/12 10:20:50;;;;;;;1.53;0.40;;;28.30;99.90;;;;;;4981842;28;20430;-77
2022/07/12 10:23:16;;;;;;;0.50;0.47;;;27.70;99.90;;;;;;4975776;28;20184;-75
2022/07/12 10:25:42;;;;;;;1.77;0.70;;;27.40;99.90;;;;;;4973698;28;20227;-75
2022/07/12 10:28:08;;;;;;;0.57;0.50;;;27.80;99.90;;;;;;4975122;28;20551;-75
2022/07/12 10:30:45;;;;;;;0.70;0.53;;;28.30;99.90;;;;;;4973950;28;20423;-76
2022/07/12 10:33:19;;;;;;;0.50;0.50;;;29.20;99.90;;;;;;4989406;28;20470;-77
2022/07/12 10:36:08;;;;;;;0.40;0.40;;;29.70;99.90;;;;;;4993944;28;20433;-77
2022/07/12 10:38:34;;;;;;;0.80;0.50;;;30.20;99.90;;;;;;4994393;28;20427;-76
2022/07/12 10:41:20;;;;;;;1.87;0.50;;;30.50;99.10;;;;;;4993118;28;20458;-76
2022/07/12 10:44:04;;;;;;;0.70;0.50;;;31.00;98.50;;;;;;4974903;28;20951;-77
2022/07/12 10:46:30;;;;;;;1.00;0.70;;;30.70;98.00;;;;;;4974861;28;20422;-75
2022/07/12 10:49:27;;;;;;;2.87;0.60;;;30.30;97.60;;;;;;4974174;28;20431;-74
2022/07/12 10:52:10;;;;;;;2.30;0.50;;;30.10;98.10;;;;;;4977439;28;20519;-77
2022/07/12 10:54:41;;;;;;;0.70;0.60;;;30.40;98.40;;;;;;4993406;28;20496;-75
2022/07/12 10:57:07;;;;;;;0.50;0.50;;;30.70;98.70;;;;;;4994166;28;20897;-77
2022/07/12 10:59:35;;;;;;;0.80;0.53;;;31.10;98.40;;;;;;4993857;28;20437;-77
2022/07/12 11:02:01;;;;;;;0.60;0.50;;;31.00;98.10;;;;;;4986702;28;20506;-74
2022/07/12 11:04:27;;;;;;;0.60;0.50;;;31.20;97.20;;;;;;4974236;28;20411;-77
2022/07/12 11:06:56;;;;;;;3.23;0.50;;;31.10;97.00;;;;;;4974491;28;20184;-77
2022/07/12 11:09:22;;;;;;;1.37;0.53;;;31.10;96.00;;;;;;4974028;28;20427;-77
2022/07/12 11:11:50;;;;;;;0.60;0.50;;;30.50;96.80;;;;;;4975763;28;20860;-77
2022/07/12 11:14:21;;;;;;;2.47;0.60;;;30.40;96.70;;;;;;4992403;28;20449;-77
2022/07/12 11:16:48;;;;;;;0.80;0.60;;;30.40;97.20;;;;;;4993735;28;20407;-76
2022/07/12 11:19:14;;;;;;;1.07;0.43;;;30.50;96.20;;;;;;4992337;28;20798;-78
2022/07/12 11:21:46;;;;;;;1.03;0.60;;;30.40;96.80;;;;;;4991395;28;21179;-77
2022/07/12 11:24:19;;;;;;;0.50;0.50;;;30.30;97.10;;;;;;4973385;28;20415;-76
2022/07/12 11:26:45;;;;;;;0.50;0.50;;;29.80;96.90;;;;;;4974209;28;20420;-77
2022/07/12 11:29:12;;;;;;;0.60;0.50;;;29.70;97.60;;;;;;4973927;28;20434;-76
2022/07/12 11:31:37;;;;;;;0.90;0.40;;;29.80;96.80;;;;;;4973674;28;20300;-77
2022/07/12 11:34:03;;;;;;;0.53;0.47;;;30.00;98.10;;;;;;4992617;28;20908;-75
2022/07/12 11:36:29;;;;;;;1.23;0.50;;;29.90;97.10;;;;;;4991433;28;20628;-77
2022/07/12 11:38:54;;;;;;;0.77;0.50;;;29.90;96.50;;;;;;4993195;28;20257;-76
2022/07/12 11:41:22;;;;;;;1.33;0.40;;;30.10;96.30;;;;;;4992423;28;20520;-75
2022/07/12 11:43:48;;;;;;;0.80;0.63;;;30.00;97.80;;;;;;4974700;28;20183;-77
2022/07/12 11:46:15;;;;;;;0.40;0.30;;;29.80;98.00;;;;;;4973322;28;20464;-76
2022/07/12 11:48:42;;;;;;;0.70;0.60;;;30.10;97.60;;;;;;4972423;28;20187;-73
2022/07/12 11:51:11;;;;;;;0.90;0.70;;;29.70;97.60;;;;;;4972534;28;20510;-77
2022/07/12 11:53:38;;;;;;;1.33;0.50;;;29.70;98.30;;;;;;4989413;28;20419;-75
2022/07/12 11:56:06;;;;;;;0.70;0.50;;;29.70;98.10;;;;;;4992674;28;20477;-76
2022/07/12 11:58:34;;;;;;;0.80;0.60;;;29.80;97.80;;;;;;4992784;28;20418;-77
2022/07/12 12:01:00;;;;;;;0.77;0.77;;;29.90;98.10;;;;;;4992167;28;20891;-76
2022/07/12 12:03:26;;;;;;;0.47;0.40;;;29.90;98.50;;;;;;4977459;28;20531;-76
2022/07/12 12:05:55;;;;;;;0.50;0.40;;;29.70;97.40;;;;;;4973350;28;20592;-77
2022/07/12 12:08:21;;;;;;;1.10;0.60;;;29.40;97.40;;;;;;4971911;28;20525;-76
2022/07/12 12:11:07;;;;;;;0.80;0.40;;;29.30;98.50;;;;;;4971855;28;20462;-76
2022/07/12 12:13:32;;;;;;;1.00;0.50;;;29.40;97.50;;;;;;4987777;28;20422;-77
2022/07/12 12:16:00;;;;;;;0.70;0.60;;;29.30;96.70;;;;;;4993943;28;20418;-77
2022/07/12 12:18:31;;;;;;;4.30;0.50;;;29.20;96.70;;;;;;4992350;28;20179;-75
2022/07/12 12:21:01;;;;;;;0.50;0.40;;;29.00;96.60;;;;;;4990722;28;20528;-76
2022/07/12 12:23:28;;;;;;;0.40;0.40;;;29.00;97.60;;;;;;4977562;28;20790;-75
2022/07/12 12:26:21;;;;;;;0.83;0.40;;;28.90;96.90;;;;;;4973022;28;20833;-76
2022/07/12 12:28:54;;;;;;;0.60;0.50;;;28.50;97.70;;;;;;4972930;28;20487;-78
2022/07/12 12:31:21;;;;;;;2.40;0.60;;;28.30;97.40;;;;;;4971591;28;20461;-76
2022/07/12 12:33:49;;;;;;;0.50;0.43;;;28.30;98.60;;;;;;4988873;28;20437;-75
2022/07/12 12:36:22;;;;;;;0.60;0.40;;;28.40;98.40;;;;;;4992053;28;20406;-76
2022/07/12 12:38:57;;;;;;;0.60;0.40;;;28.30;99.20;;;;;;4992106;28;20472;-76
2022/07/12 12:41:26;;;;;;;2.30;0.50;;;28.30;99.20;;;;;;4991053;28;20429;-75
2022/07/12 12:43:59;;;;;;;3.50;0.50;;;28.20;99.70;;;;;;4974473;28;20916;-77
2022/07/12 12:49:50;;;;;;;3.90;0.50;;;28.30;98.30;;;;;;4972758;28;20415;-75
2022/07/12 12:52:16;;;;;;;0.70;0.60;;;28.10;98.20;;;;;;4977017;28;20860;-76
2022/07/12 12:54:42;;;;;;;3.90;0.60;;;28.10;98.30;;;;;;4991268;28;20826;-75
2022/07/12 12:57:09;;;;;;;1.70;0.57;;;28.10;98.50;;;;;;4992029;28;20422;-78
2022/07/12 12:59:35;;;;;;;0.50;0.50;;;28.10;97.90;;;;;;4992035;28;20175;-77
2022/07/12 13:02:02;;;;;;;0.60;0.40;;;28.20;98.90;;;;;;4986223;28;20451;-75
2022/07/12 13:04:32;;;;;;;0.60;0.40;;;27.80;98.20;;;;;;4971960;28;20437;-79
2022/07/12 13:06:58;;;;;;;3.03;0.47;;;27.80;98.90;;;;;;4955739;28;20488;-75
2022/07/12 13:09:25;;;;;;;0.50;0.50;;;28.00;99.00;;;;;;4989772;28;20458;-75
2022/07/12 13:11:50;;;;;;;0.63;0.50;;;28.00;97.90;;;;;;4986141;28;20223;-74
2022/07/12 13:14:16;;;;;;;0.50;0.50;;;27.90;98.20;;;;;;4986491;28;20472;-75
2022/07/12 13:16:41;;;;;;;1.77;0.50;;;27.90;98.30;;;;;;4989144;28;20265;-75
2022/07/12 13:19:07;;;;;;;0.50;0.50;;;27.90;99.40;;;;;;4989560;28;20211;-75
2022/07/12 13:21:33;;;;;;;0.60;0.40;;;28.00;99.50;;;;;;4988791;28;20617;-75
2022/07/12 13:23:59;;;;;;;0.50;0.50;;;28.20;99.90;;;;;;4969640;28;20310;-75
2022/07/12 13:26:24;;;;;;;0.60;0.50;;;28.10;99.00;;;;;;4970575;28;20470;-75
2022/07/12 13:28:50;;;;;;;0.50;0.40;;;27.90;97.90;;;;;;4970952;28;20231;-75
2022/07/12 13:31:16;;;;;;;0.93;0.53;;;27.90;97.90;;;;;;4970441;28;20302;-75
2022/07/12 13:33:41;;;;;;;0.60;0.50;;;27.60;98.40;;;;;;4987272;28;20571;-75
2022/07/12 13:36:07;;;;;;;0.43;0.40;;;27.50;98.40;;;;;;4988816;28;20536;-75
2022/07/12 13:38:32;;;;;;;0.40;0.40;;;27.50;97.60;;;;;;4990462;28;20222;-75
2022/07/12 13:40:58;;;;;;;0.70;0.50;;;27.40;97.40;;;;;;4989712;28;20199;-75
2022/07/12 13:43:23;;;;;;;1.63;0.50;;;27.30;96.90;;;;;;4989866;28;20245;-75
2022/07/12 13:45:52;;;;;;;0.50;0.40;;;27.30;98.20;;;;;;4970593;28;20366;-76
2022/07/12 13:48:18;;;;;;;1.80;0.77;;;27.30;97.90;;;;;;4982437;28;20211;-75
2022/07/12 13:50:44;;;;;;;0.97;0.97;;;27.40;99.50;;;;;;4988254;28;20807;-74
2022/07/12 13:53:10;;;;;;;1.93;0.70;;;27.60;99.40;;;;;;4989829;28;20472;-74
2022/07/12 13:55:36;;;;;;;0.90;0.50;;;27.60;99.50;;;;;;4990319;28;20262;-74
2022/07/12 13:58:02;;;;;;;0.80;0.60;;;27.60;98.60;;;;;;4979985;28;20224;-74
2022/07/12 14:00:28;;;;;;;0.67;0.50;;;27.30;99.30;;;;;;4974620;28;20226;-73
2022/07/12 14:02:54;;;;;;;1.30;0.50;;;27.30;99.10;;;;;;4976478;28;20439;-73
2022/07/12 14:05:20;;;;;;;0.57;0.50;;;27.20;98.90;;;;;;4976768;28;20207;-73
2022/07/12 14:07:46;;;;;;;0.50;0.40;;;27.10;98.50;;;;;;4982852;28;20445;-74
2022/07/12 14:10:12;;;;;;;1.10;0.53;;;27.20;99.00;;;;;;4982829;28;20467;-73
2022/07/12 14:12:38;;;;;;;1.93;0.60;;;27.10;99.40;;;;;;4976486;28;20471;-73
2022/07/12 14:15:14;;;;;;;0.60;0.50;;;27.00;99.00;;;;;;4976508;28;21059;-77
2022/07/12 14:17:48;;;;;;;0.77;0.77;;;27.00;99.20;;;;;;4984310;28;20765;-74
2022/07/12 14:20:17;;;;;;;0.60;0.60;;;27.00;99.20;;;;;;4970681;28;21006;-74
2022/07/12 14:22:42;;;;;;;1.10;0.57;;;26.90;98.80;;;;;;4986203;28;20478;-74
2022/07/12 14:25:08;;;;;;;1.27;0.60;;;26.90;99.20;;;;;;4976409;28;20439;-74
2022/07/12 14:27:35;;;;;;;1.53;0.50;;;26.90;99.80;;;;;;4981497;28;20298;-73
2022/07/12 14:30:01;;;;;;;1.23;0.50;;;27.00;99.30;;;;;;4995384;28;20450;-74
2022/07/12 14:32:27;;;;;;;1.57;0.50;;;27.00;99.40;;;;;;4993628;28;20564;-74
2022/07/12 14:34:52;;;;;;;2.23;0.60;;;27.00;99.80;;;;;;4984639;28;20940;-74